Time;durP1;ratioP1;P1;durP2;ratioP2;P2;SDS_P1;SDS_P2;PMS_P1;PMS_P2;Temp;Humidity;BMP_temperature;BMP_pressure;BME280_temperature;BME280_humidity;BME280_pressure;Samples;Min_cycle;Max_cycle;Signal;HPM_P1;HPM_P2
2021/12/05 00:19:04;;;;;;;2.30;1.20;;;;;17.80;98749.00;;;;2094142;28;20212;-46
2021/12/05 00:20:38;;;;;;;2.35;1.30;;;;;17.80;98759.00;;;;2085866;28;20688;-47
2021/12/05 00:22:45;;;;;;;1.53;1.43;;;;;17.80;98755.00;;;;2085857;28;20576;-46
2021/12/05 00:23:49;;;;;;;2.30;1.50;;;;;17.80;98751.00;;;;2086728;28;20223;-46
2021/12/05 00:24:53;;;;;;;1.65;1.20;;;;;17.80;98754.00;;;;2086568;28;20213;-47
2021/12/05 00:25:55;;;;;;;2.35;1.67;;;;;17.80;98762.00;;;;2086756;28;20204;-45
2021/12/05 00:27:01;;;;;;;2.80;1.60;;;;;17.80;98749.00;;;;2086842;28;20296;-47
2021/12/05 00:33:12;;;;;;;1.60;1.40;;;;;17.80;98754.00;;;;2078282;28;20225;-47
2021/12/05 00:54:31;;;;;;;1.75;1.33;;;;;17.80;98764.00;;;;2074318;28;20342;-46
2021/12/05 00:56:47;;;;;;;1.47;1.20;;;;;17.80;98768.00;;;;2087120;28;20292;-47
2021/12/05 00:57:30;;;;;;;1.50;1.40;;;;;17.80;98769.00;;;;2076518;28;20576;-46
2021/12/05 00:59:08;;;;;;;1.92;1.25;;;;;17.80;98769.00;;;;2083844;28;20314;-46
2021/12/05 01:00:05;;;;;;;1.40;1.20;;;;;17.80;98771.00;;;;2087737;28;20673;-46
2021/12/05 01:02:19;;;;;;;1.55;1.20;;;;;17.80;98770.00;;;;2076126;28;20213;-45
2021/12/05 01:03:41;;;;;;;1.80;1.30;;;;;17.80;98777.00;;;;2079434;28;20220;-46
2021/12/05 01:07:20;;;;;;;2.33;1.50;;;;;17.70;98777.00;;;;2076481;28;20303;-47
2021/12/05 01:08:38;;;;;;;2.22;1.30;;;;;17.70;98779.00;;;;2088174;28;20291;-46
2021/12/05 01:11:13;;;;;;;1.55;1.35;;;;;17.70;98779.00;;;;2086949;28;20208;-46
2021/12/05 01:15:19;;;;;;;2.05;1.50;;;;;17.70;98781.00;;;;2087857;28;20296;-47
2021/12/05 01:16:04;;;;;;;2.58;1.70;;;;;17.70;98788.00;;;;2082087;28;20814;-46
2021/12/05 01:17:05;;;;;;;2.20;1.45;;;;;17.80;98786.00;;;;2088139;28;20297;-47
2021/12/05 01:18:16;;;;;;;1.73;1.40;;;;;17.70;98782.00;;;;2085947;28;20583;-46
2021/12/05 01:19:17;;;;;;;2.40;1.48;;;;;17.70;98782.00;;;;2079650;28;20698;-46
2021/12/05 01:20:18;;;;;;;1.40;1.30;;;;;17.70;98786.00;;;;2079499;28;20217;-45
2021/12/05 01:21:22;;;;;;;2.60;1.30;;;;;17.70;98793.00;;;;2079057;28;20222;-45
2021/12/05 01:22:23;;;;;;;3.08;1.77;;;;;17.70;98787.00;;;;2079445;28;20483;-46
2021/12/05 01:26:47;;;;;;;3.05;1.38;;;;;17.70;98768.00;;;;2078812;28;20230;-47
2021/12/05 01:28:13;;;;;;;2.03;1.30;;;;;17.70;98804.00;;;;2079723;28;20301;-46
2021/12/05 01:30:33;;;;;;;1.60;1.45;;;;;17.70;98797.00;;;;2087823;28;20212;-46
2021/12/05 01:34:17;;;;;;;1.95;1.48;;;;;17.70;98807.00;;;;2087143;28;20220;-46
2021/12/05 01:39:25;;;;;;;1.70;1.25;;;;;17.70;98812.00;;;;2087666;28;20644;-45
2021/12/05 02:00:26;;;;;;;1.98;1.23;;;;;17.70;98808.00;;;;2084860;28;20601;-47
2021/12/05 02:08:05;;;;;;;1.30;1.17;;;;;17.70;98798.00;;;;2079224;28;20221;-46
2021/12/05 02:15:55;;;;;;;1.40;1.13;;;;;17.60;98796.00;;;;2085446;28;20209;-47
2021/12/05 02:29:32;;;;;;;2.58;1.40;;;;;17.60;98786.00;;;;2084136;28;20209;-48
2021/12/05 02:30:40;;;;;;;2.03;1.30;;;;;17.70;98792.00;;;;2084229;28;20657;-48
2021/12/05 02:33:06;;;;;;;1.75;1.25;;;;;17.70;98792.00;;;;2084217;28;20315;-48
2021/12/05 02:34:22;;;;;;;1.50;1.20;;;;;17.60;98791.00;;;;2085780;28;20232;-48
2021/12/05 02:36:30;;;;;;;1.33;1.20;;;;;17.60;98792.00;;;;2086948;28;20284;-47
2021/12/05 02:38:12;;;;;;;1.70;1.30;;;;;17.70;98785.00;;;;2078844;28;20716;-47
2021/12/05 02:41:23;;;;;;;1.40;1.30;;;;;17.70;98798.00;;;;2086379;28;20208;-48
2021/12/05 02:42:36;;;;;;;1.83;1.23;;;;;17.70;98791.00;;;;2086808;28;20291;-47
2021/12/05 02:43:46;;;;;;;1.58;1.25;;;;;17.60;98796.00;;;;2086220;28;20216;-47
2021/12/05 02:44:47;;;;;;;2.05;1.50;;;;;17.60;98800.00;;;;2085901;28;20216;-47
2021/12/05 02:45:47;;;;;;;2.00;1.37;;;;;17.60;98802.00;;;;2086906;28;20688;-47
2021/12/05 02:46:52;;;;;;;1.67;1.27;;;;;17.60;98798.00;;;;2087842;28;20577;-47
2021/12/05 02:47:54;;;;;;;2.45;1.50;;;;;17.60;98794.00;;;;2087374;28;20213;-47
2021/12/05 02:49:02;;;;;;;1.50;1.30;;;;;17.70;98796.00;;;;2087138;28;20578;-47
2021/12/05 02:50:06;;;;;;;1.55;1.20;;;;;17.70;98793.00;;;;2085870;28;20209;-47
2021/12/05 02:51:16;;;;;;;1.65;1.20;;;;;17.70;98800.00;;;;2078880;28;20216;-47
2021/12/05 02:52:23;;;;;;;1.63;1.13;;;;;17.70;98799.00;;;;2079418;28;20217;-47
2021/12/05 02:53:40;;;;;;;3.33;1.20;;;;;17.70;98791.00;;;;2083446;28;20731;-47
2021/12/05 02:54:46;;;;;;;1.90;1.13;;;;;17.60;98801.00;;;;2087166;28;20648;-47
2021/12/05 02:55:48;;;;;;;1.90;1.40;;;;;17.60;98799.00;;;;2087437;28;20228;-47
2021/12/05 02:56:50;;;;;;;1.45;0.93;;;;;17.60;98800.00;;;;2082141;28;20217;-47
2021/12/05 02:57:55;;;;;;;1.45;1.10;;;;;17.60;98791.00;;;;2079265;28;20492;-47
2021/12/05 02:58:59;;;;;;;2.90;1.60;;;;;17.60;98792.00;;;;2078714;28;20256;-47
2021/12/05 03:00:07;;;;;;;1.40;1.17;;;;;17.70;98785.00;;;;2083375;28;20235;-47
2021/12/05 03:01:23;;;;;;;2.22;1.25;;;;;17.70;98779.00;;;;2085620;28;20263;-47
2021/12/05 03:02:37;;;;;;;2.22;1.20;;;;;17.70;98802.00;;;;2081332;28;20213;-48
2021/12/05 03:03:38;;;;;;;2.05;1.25;;;;;17.60;98796.00;;;;2084681;28;20674;-47
2021/12/05 03:04:45;;;;;;;1.42;1.10;;;;;17.60;98791.00;;;;2085038;28;20371;-47
2021/12/05 03:05:49;;;;;;;2.45;1.50;;;;;17.60;98788.00;;;;2086441;28;20292;-47
2021/12/05 03:06:52;;;;;;;1.75;1.10;;;;;17.60;98791.00;;;;2078493;28;20653;-47
2021/12/05 03:07:58;;;;;;;2.05;1.27;;;;;17.60;98796.00;;;;2064630;28;20334;-47
2021/12/05 03:09:06;;;;;;;1.45;1.10;;;;;17.60;98792.00;;;;2078313;28;20673;-49
2021/12/05 03:10:07;;;;;;;2.78;1.23;;;;;17.60;98788.00;;;;2079290;28;20292;-47
2021/12/05 03:11:07;;;;;;;2.38;1.40;;;;;17.60;98786.00;;;;2077946;28;20210;-47
2021/12/05 03:12:10;;;;;;;1.80;1.13;;;;;17.60;98788.00;;;;2078627;28;20272;-47
2021/12/05 03:13:11;;;;;;;2.97;1.40;;;;;17.60;98786.00;;;;2079191;28;20221;-47
2021/12/05 03:14:11;;;;;;;2.20;1.10;;;;;17.60;98787.00;;;;2079258;28;20557;-47
2021/12/05 03:15:13;;;;;;;2.60;1.27;;;;;17.60;98792.00;;;;2079433;28;20713;-47
2021/12/05 03:16:14;;;;;;;2.20;1.25;;;;;17.60;98754.00;;;;2079000;28;20218;-48
2021/12/05 03:17:15;;;;;;;2.38;1.38;;;;;17.60;98775.00;;;;2078496;28;20278;-47
2021/12/05 03:18:16;;;;;;;1.87;1.10;;;;;17.60;98780.00;;;;2078888;28;20221;-47
2021/12/05 03:19:17;;;;;;;2.33;1.10;;;;;17.60;98778.00;;;;2078794;28;20224;-47
2021/12/05 03:20:17;;;;;;;1.60;0.90;;;;;17.60;98785.00;;;;2078578;28;20213;-47
2021/12/05 03:21:18;;;;;;;2.00;1.50;;;;;17.60;98782.00;;;;2078885;28;20209;-47
2021/12/05 03:22:18;;;;;;;2.30;1.40;;;;;17.60;98791.00;;;;2078131;28;20389;-48
2021/12/05 03:23:21;;;;;;;2.10;1.00;;;;;17.60;98783.00;;;;2078386;28;20209;-47
2021/12/05 03:24:22;;;;;;;1.23;1.13;;;;;17.60;98791.00;;;;2078384;28;20297;-47
2021/12/05 03:25:22;;;;;;;1.65;1.17;;;;;17.60;98780.00;;;;2070369;28;20218;-47
2021/12/05 03:26:25;;;;;;;3.00;1.43;;;;;17.70;98794.00;;;;2080954;28;20213;-47
2021/12/05 03:27:26;;;;;;;2.60;1.23;;;;;17.60;98791.00;;;;2087002;28;20213;-53
2021/12/05 03:28:26;;;;;;;1.83;1.40;;;;;17.60;98795.00;;;;2086986;28;20818;-49
2021/12/05 03:29:26;;;;;;;2.00;1.23;;;;;17.60;98788.00;;;;2079182;28;20221;-48
2021/12/05 03:30:27;;;;;;;1.67;0.90;;;;;17.60;98786.00;;;;2083461;28;20209;-48
2021/12/05 03:31:30;;;;;;;2.60;1.00;;;;;17.60;98784.00;;;;2087451;28;20235;-49
2021/12/05 03:32:31;;;;;;;2.97;1.40;;;;;17.60;98785.00;;;;2086342;28;20217;-47
2021/12/05 03:33:31;;;;;;;1.90;1.20;;;;;17.60;98788.00;;;;2086655;28;20752;-47
2021/12/05 03:34:33;;;;;;;1.60;1.20;;;;;17.60;98784.00;;;;2087310;28;20572;-48
2021/12/05 03:35:33;;;;;;;2.15;1.20;;;;;17.60;98782.00;;;;2087251;28;20487;-47
2021/12/05 03:36:34;;;;;;;1.67;1.20;;;;;17.60;98781.00;;;;2087695;28;20219;-48
2021/12/05 03:37:35;;;;;;;2.53;1.20;;;;;17.60;98780.00;;;;2081580;28;20217;-47
2021/12/05 03:38:36;;;;;;;2.08;1.20;;;;;17.60;98773.00;;;;2078376;28;20296;-47
2021/12/05 03:39:37;;;;;;;2.58;1.23;;;;;17.60;98778.00;;;;2086532;28;20236;-47
2021/12/05 03:40:39;;;;;;;2.33;1.30;;;;;17.50;98779.00;;;;2078543;28;20213;-47
2021/12/05 03:41:40;;;;;;;1.50;1.25;;;;;17.60;98782.00;;;;2079255;28;20509;-48
2021/12/05 03:42:40;;;;;;;1.20;1.10;;;;;17.60;98782.00;;;;2086923;28;20212;-47
2021/12/05 03:43:41;;;;;;;2.10;1.10;;;;;17.60;98782.00;;;;2079105;28;20312;-46
2021/12/05 03:44:42;;;;;;;1.60;1.03;;;;;17.60;98777.00;;;;2079328;28;20214;-47
2021/12/05 03:45:43;;;;;;;2.40;1.13;;;;;17.60;98782.00;;;;2087378;28;20571;-47
2021/12/05 03:46:45;;;;;;;1.38;1.10;;;;;17.60;98793.00;;;;2087094;28;20223;-47
2021/12/05 03:47:46;;;;;;;1.80;1.10;;;;;17.60;98779.00;;;;2086540;28;20212;-47
2021/12/05 03:48:50;;;;;;;1.40;1.00;;;;;17.60;98787.00;;;;2086368;28;20586;-48
2021/12/05 03:49:51;;;;;;;2.25;1.45;;;;;17.60;98769.00;;;;2078865;28;20583;-48
2021/12/05 03:50:53;;;;;;;2.75;1.30;;;;;17.60;98780.00;;;;2078694;28;20221;-47
2021/12/05 03:52:06;;;;;;;1.55;1.20;;;;;17.60;98781.00;;;;2081056;28;20244;-47
2021/12/05 03:53:07;;;;;;;1.27;1.00;;;;;17.60;98786.00;;;;2087108;28;20255;-47
2021/12/05 03:54:08;;;;;;;2.55;1.30;;;;;17.60;98778.00;;;;2087168;28;20739;-47
2021/12/05 03:55:09;;;;;;;2.60;1.00;;;;;17.60;98785.00;;;;2087233;28;20205;-47
2021/12/05 03:56:10;;;;;;;1.65;1.25;;;;;17.50;98777.00;;;;2086950;28;20209;-47
2021/12/05 03:57:10;;;;;;;1.70;1.13;;;;;17.50;98783.00;;;;2087274;28;20270;-47
2021/12/05 03:58:10;;;;;;;1.40;0.90;;;;;17.60;98778.00;;;;2086285;28;20560;-47
2021/12/05 03:59:11;;;;;;;1.43;1.10;;;;;17.60;98781.00;;;;2086448;28;20206;-47
2021/12/05 04:00:18;;;;;;;1.33;1.00;;;;;17.60;98779.00;;;;2084266;28;20205;-47
2021/12/05 04:01:18;;;;;;;2.03;1.00;;;;;17.60;98778.00;;;;2086081;28;20221;-47
2021/12/05 04:02:19;;;;;;;1.87;1.40;;;;;17.60;98774.00;;;;2079085;28;20221;-47
2021/12/05 04:03:19;;;;;;;1.77;1.20;;;;;17.60;98768.00;;;;2078205;28;20237;-47
2021/12/05 04:04:20;;;;;;;2.63;1.10;;;;;17.60;98772.00;;;;2074677;28;20214;-47
2021/12/05 04:05:20;;;;;;;2.07;1.10;;;;;17.60;98768.00;;;;2077919;28;20205;-47
2021/12/05 04:06:23;;;;;;;1.90;1.30;;;;;17.60;98771.00;;;;2077806;28;20682;-47
2021/12/05 04:07:25;;;;;;;2.40;1.20;;;;;17.60;98772.00;;;;2081838;28;20216;-47
2021/12/05 04:08:26;;;;;;;2.07;1.27;;;;;17.50;98768.00;;;;2085027;28;20223;-47
2021/12/05 04:09:26;;;;;;;1.50;1.20;;;;;17.60;98772.00;;;;2083232;28;20258;-48
2021/12/05 04:10:28;;;;;;;1.90;1.23;;;;;17.60;98769.00;;;;2085823;28;20566;-47
2021/12/05 04:11:34;;;;;;;2.58;1.73;;;;;17.60;98772.00;;;;2084079;28;20230;-48
2021/12/05 04:12:34;;;;;;;1.83;1.13;;;;;17.60;98782.00;;;;2077563;28;20301;-47
2021/12/05 04:13:35;;;;;;;1.67;1.30;;;;;17.60;98768.00;;;;2077870;28;20226;-47
2021/12/05 04:14:41;;;;;;;1.20;1.10;;;;;17.60;98769.00;;;;2078842;28;20263;-47
2021/12/05 04:15:42;;;;;;;1.75;1.10;;;;;17.60;98771.00;;;;2078899;28;20217;-47
2021/12/05 04:16:43;;;;;;;1.65;1.15;;;;;17.50;98774.00;;;;2078691;28;20225;-47
2021/12/05 04:17:43;;;;;;;2.00;0.93;;;;;17.50;98776.00;;;;2067150;28;20755;-47
2021/12/05 04:18:45;;;;;;;1.77;1.30;;;;;17.50;98773.00;;;;2077941;28;20221;-48
2021/12/05 04:19:46;;;;;;;1.67;1.00;;;;;17.60;98774.00;;;;2089385;28;20281;-47
2021/12/05 04:20:46;;;;;;;1.83;1.20;;;;;17.60;98768.00;;;;2085987;28;20216;-48
2021/12/05 04:21:46;;;;;;;2.43;1.20;;;;;17.50;98766.00;;;;2085989;28;20251;-47
2021/12/05 04:22:47;;;;;;;2.60;1.20;;;;;17.50;98773.00;;;;2086198;28;20211;-47
2021/12/05 04:23:49;;;;;;;1.83;0.90;;;;;17.60;98774.00;;;;2086796;28;20209;-47
2021/12/05 04:24:50;;;;;;;1.58;1.00;;;;;17.60;98767.00;;;;2084856;28;20346;-47
2021/12/05 04:25:52;;;;;;;2.10;0.98;;;;;17.50;98765.00;;;;2078250;28;20603;-48
2021/12/05 04:26:52;;;;;;;2.03;1.00;;;;;17.50;98744.00;;;;2078449;28;20222;-47
2021/12/05 04:27:53;;;;;;;2.70;1.30;;;;;17.60;98770.00;;;;2083507;28;20865;-47
2021/12/05 04:28:54;;;;;;;1.70;0.93;;;;;17.60;98771.00;;;;2084701;28;20232;-47
2021/12/05 04:29:54;;;;;;;1.77;1.20;;;;;17.60;98768.00;;;;2088442;28;20295;-47
2021/12/05 04:30:55;;;;;;;1.40;0.90;;;;;17.60;98769.00;;;;2088086;28;20229;-47
2021/12/05 04:31:55;;;;;;;2.60;1.10;;;;;17.60;98770.00;;;;2084064;28;20666;-48
2021/12/05 04:32:56;;;;;;;2.17;1.20;;;;;17.50;98769.00;;;;2087964;28;20248;-47
2021/12/05 04:33:56;;;;;;;1.93;1.17;;;;;17.60;98771.00;;;;2078514;28;20335;-48
2021/12/05 04:34:57;;;;;;;1.87;1.10;;;;;17.50;98768.00;;;;2079838;28;20209;-47
2021/12/05 04:35:58;;;;;;;1.70;1.27;;;;;17.50;98766.00;;;;2080330;28;20221;-47
2021/12/05 04:36:58;;;;;;;1.70;1.43;;;;;17.50;98775.00;;;;2079648;28;20532;-47
2021/12/05 04:37:58;;;;;;;1.23;1.07;;;;;17.50;98772.00;;;;2079556;28;20213;-47
2021/12/05 04:38:59;;;;;;;1.93;1.07;;;;;17.50;98770.00;;;;2080488;28;20217;-47
2021/12/05 04:39:59;;;;;;;3.40;1.20;;;;;17.50;98772.00;;;;2080601;28;20300;-47
2021/12/05 04:41:00;;;;;;;1.80;1.10;;;;;17.50;98771.00;;;;2080077;28;20263;-47
2021/12/05 04:42:01;;;;;;;1.45;1.13;;;;;17.40;98765.00;;;;2077312;28;20216;-47
2021/12/05 04:43:02;;;;;;;2.50;1.20;;;;;17.60;98773.00;;;;2079966;28;20213;-48
2021/12/05 04:44:02;;;;;;;1.55;1.00;;;;;17.50;98773.00;;;;2080218;28;20300;-48
2021/12/05 04:45:05;;;;;;;2.13;0.90;;;;;17.50;98773.00;;;;2081031;28;20205;-47
2021/12/05 04:46:14;;;;;;;2.13;1.42;;;;;17.50;98773.00;;;;2079716;28;20221;-47
2021/12/05 04:47:15;;;;;;;1.38;1.20;;;;;17.50;98743.00;;;;2072384;28;20257;-47
2021/12/05 04:48:16;;;;;;;2.20;1.27;;;;;17.50;98768.00;;;;2079205;28;20225;-47
2021/12/05 04:49:16;;;;;;;1.80;1.35;;;;;17.50;98779.00;;;;2088558;28;20211;-48
2021/12/05 04:50:17;;;;;;;1.70;1.20;;;;;17.50;98770.00;;;;2087720;28;20209;-47
2021/12/05 04:51:21;;;;;;;2.27;1.17;;;;;17.50;98770.00;;;;2085954;28;20665;-47
2021/12/05 04:52:21;;;;;;;1.83;1.05;;;;;17.50;98778.00;;;;2080216;28;20243;-47
2021/12/05 04:53:26;;;;;;;2.00;1.20;;;;;17.50;98776.00;;;;2080252;28;20213;-47
2021/12/05 04:54:27;;;;;;;1.25;0.90;;;;;17.50;98773.00;;;;2083493;28;20357;-47
2021/12/05 04:55:27;;;;;;;2.80;1.10;;;;;17.50;98777.00;;;;2087314;28;20213;-48
2021/12/05 04:56:28;;;;;;;1.30;1.17;;;;;17.50;98774.00;;;;2084186;28;20257;-47
2021/12/05 04:57:28;;;;;;;1.90;1.10;;;;;17.50;98774.00;;;;2088003;28;24834;-47
2021/12/05 04:58:28;;;;;;;2.53;1.10;;;;;17.50;98772.00;;;;2087528;28;20679;-47
2021/12/05 04:59:32;;;;;;;1.83;0.90;;;;;17.50;98774.00;;;;2088445;28;20540;-47
2021/12/05 05:00:37;;;;;;;1.27;1.00;;;;;17.50;98778.00;;;;2087513;28;20244;-47
2021/12/05 05:01:37;;;;;;;1.38;1.05;;;;;17.50;98773.00;;;;2088407;28;20606;-47
2021/12/05 05:02:38;;;;;;;2.20;1.20;;;;;17.50;98772.00;;;;2088251;28;20221;-47
2021/12/05 05:03:38;;;;;;;2.33;1.20;;;;;17.50;98777.00;;;;2081852;28;20260;-47
2021/12/05 05:04:46;;;;;;;2.30;1.13;;;;;17.50;98773.00;;;;2080316;28;20213;-47
2021/12/05 05:05:56;;;;;;;1.40;0.80;;;;;17.50;98770.00;;;;2079515;28;20551;-48
2021/12/05 05:07:03;;;;;;;1.27;0.98;;;;;17.50;98769.00;;;;2079383;28;20209;-47
2021/12/05 05:08:04;;;;;;;1.92;1.02;;;;;17.50;98775.00;;;;2079660;28;20235;-47
2021/12/05 05:09:04;;;;;;;2.10;1.23;;;;;17.50;98769.00;;;;2080437;28;20209;-47
2021/12/05 05:10:12;;;;;;;1.83;1.20;;;;;17.50;98771.00;;;;2083601;28;20221;-47
2021/12/05 05:11:13;;;;;;;2.55;1.00;;;;;17.50;98771.00;;;;2086963;28;20224;-47
2021/12/05 05:12:14;;;;;;;1.90;0.90;;;;;17.50;98776.00;;;;2087502;28;20767;-47
2021/12/05 05:13:14;;;;;;;2.37;1.43;;;;;17.50;98768.00;;;;2087600;28;20239;-47
2021/12/05 05:14:14;;;;;;;1.60;1.13;;;;;17.40;98777.00;;;;2088532;28;20208;-47
2021/12/05 05:15:20;;;;;;;1.47;0.87;;;;;17.50;98773.00;;;;2088467;28;20263;-48
2021/12/05 05:16:22;;;;;;;2.25;1.30;;;;;17.50;98775.00;;;;2087167;28;20568;-47
2021/12/05 05:17:23;;;;;;;2.03;1.13;;;;;17.50;98769.00;;;;2088494;28;20215;-47
2021/12/05 05:18:28;;;;;;;1.90;1.05;;;;;17.50;98773.00;;;;2085089;28;20269;-47
2021/12/05 05:19:35;;;;;;;2.25;1.00;;;;;17.40;98775.00;;;;2080289;28;20945;-47
2021/12/05 05:20:43;;;;;;;1.85;1.08;;;;;17.50;98775.00;;;;2084402;28;20543;-47
2021/12/05 05:23:18;;;;;;;2.33;1.13;;;;;17.50;98778.00;;;;2079555;28;20324;-48
2021/12/05 05:39:54;;;;;;;1.42;0.90;;;;;17.50;98786.00;;;;2084970;28;20220;-48
2021/12/05 05:42:25;;;;;;;2.28;1.10;;;;;17.50;98802.00;;;;2087255;28;20345;-47
2021/12/05 05:43:28;;;;;;;1.80;0.90;;;;;17.50;98800.00;;;;2086882;28;20234;-47
2021/12/05 05:45:57;;;;;;;1.92;1.00;;;;;17.50;98803.00;;;;2087590;28;20213;-47
2021/12/05 05:48:14;;;;;;;1.60;1.10;;;;;17.50;98809.00;;;;2080255;28;20285;-47
2021/12/05 05:49:19;;;;;;;1.90;1.13;;;;;17.50;98802.00;;;;2086142;28;20323;-47
2021/12/05 05:50:20;;;;;;;1.65;0.90;;;;;17.50;98807.00;;;;2083033;28;20228;-47
2021/12/05 05:51:22;;;;;;;3.27;0.87;;;;;17.50;98813.00;;;;2075733;28;20694;-47
2021/12/05 05:52:22;;;;;;;3.10;0.98;;;;;17.50;98812.00;;;;2079180;28;20515;-47
2021/12/05 05:53:22;;;;;;;2.43;0.97;;;;;17.40;98813.00;;;;2079814;28;20701;-47
2021/12/05 05:54:23;;;;;;;1.43;1.00;;;;;17.40;98821.00;;;;2080133;28;20227;-48
2021/12/05 05:55:23;;;;;;;1.50;0.80;;;;;17.50;98822.00;;;;2079806;28;20214;-47
2021/12/05 05:56:27;;;;;;;1.67;1.20;;;;;17.50;98821.00;;;;2080052;28;20247;-47
2021/12/05 05:57:33;;;;;;;1.83;1.08;;;;;17.50;98813.00;;;;2079588;28;20214;-48
2021/12/05 05:58:54;;;;;;;1.45;0.93;;;;;17.50;98811.00;;;;2084260;28;20209;-47
2021/12/05 06:00:08;;;;;;;1.77;0.90;;;;;17.50;98818.00;;;;2080152;28;20272;-48
2021/12/05 06:01:17;;;;;;;2.35;0.80;;;;;17.50;98821.00;;;;2086446;28;20219;-47
2021/12/05 06:03:36;;;;;;;2.15;1.02;;;;;17.40;98823.00;;;;2079201;28;20213;-47
2021/12/05 06:04:37;;;;;;;1.00;0.90;;;;;17.50;98825.00;;;;2072098;28;20575;-46
2021/12/05 06:05:37;;;;;;;1.30;1.03;;;;;17.40;98820.00;;;;2079362;28;20201;-46
2021/12/05 06:06:38;;;;;;;1.67;0.90;;;;;17.50;98826.00;;;;2084407;28;20569;-45
2021/12/05 06:07:43;;;;;;;1.47;0.90;;;;;17.40;98826.00;;;;2087695;28;20209;-45
2021/12/05 06:08:44;;;;;;;1.45;0.85;;;;;17.40;98829.00;;;;2080210;28;20233;-44
2021/12/05 06:09:44;;;;;;;1.60;0.87;;;;;17.40;98830.00;;;;2079534;28;20264;-48
2021/12/05 06:10:46;;;;;;;2.33;1.10;;;;;17.40;98825.00;;;;2080084;28;20509;-48
2021/12/05 06:11:47;;;;;;;1.20;0.90;;;;;17.40;98833.00;;;;2087879;28;20513;-47
2021/12/05 06:12:47;;;;;;;2.20;1.27;;;;;17.40;98832.00;;;;2087792;28;20303;-47
2021/12/05 06:13:47;;;;;;;1.77;1.00;;;;;17.40;98833.00;;;;2086132;28;20254;-47
2021/12/05 06:14:48;;;;;;;2.20;0.90;;;;;17.40;98831.00;;;;2084049;28;20244;-45
2021/12/05 06:15:48;;;;;;;1.70;0.80;;;;;17.40;98836.00;;;;2085664;28;20221;-43
2021/12/05 06:16:49;;;;;;;1.50;1.00;;;;;17.40;98838.00;;;;2079479;28;20229;-45
2021/12/05 06:17:49;;;;;;;1.00;0.80;;;;;17.40;98832.00;;;;2079551;28;20228;-47
2021/12/05 06:18:50;;;;;;;1.60;1.27;;;;;17.50;98838.00;;;;2079552;28;20747;-47
2021/12/05 06:19:51;;;;;;;1.73;1.00;;;;;17.40;98839.00;;;;2078617;28;20648;-45
2021/12/05 06:20:51;;;;;;;1.40;1.00;;;;;17.40;98835.00;;;;2077902;28;20295;-49
2021/12/05 06:21:52;;;;;;;1.10;0.80;;;;;17.40;98841.00;;;;2084447;28;20232;-45
2021/12/05 06:22:54;;;;;;;1.10;0.70;;;;;17.40;98840.00;;;;2087701;28;20205;-46
2021/12/05 06:23:54;;;;;;;1.15;0.90;;;;;17.40;98841.00;;;;2086929;28;20220;-46
2021/12/05 06:24:55;;;;;;;1.30;1.00;;;;;17.40;98842.00;;;;2080085;28;20214;-47
2021/12/05 06:25:56;;;;;;;1.63;0.90;;;;;17.40;98835.00;;;;2079315;28;20228;-46
2021/12/05 06:26:58;;;;;;;1.53;0.80;;;;;17.40;98838.00;;;;2079393;28;20213;-46
2021/12/05 06:28:02;;;;;;;1.30;0.70;;;;;17.40;98844.00;;;;2084001;28;20205;-47
2021/12/05 06:30:11;;;;;;;1.77;0.93;;;;;17.40;98842.00;;;;2086351;28;20220;-47
2021/12/05 06:31:31;;;;;;;1.70;1.10;;;;;17.40;98838.00;;;;2085962;28;20201;-46
2021/12/05 06:37:43;;;;;;;2.80;1.20;;;;;17.40;98843.00;;;;2086355;28;20653;-46
2021/12/05 06:41:23;;;;;;;1.40;0.77;;;;;17.40;98842.00;;;;2053179;28;20207;-45
2021/12/05 06:46:06;;;;;;;2.50;1.02;;;;;17.40;98847.00;;;;2086933;28;20240;-44
2021/12/05 06:47:09;;;;;;;1.92;0.90;;;;;17.50;98868.00;;;;2080049;28;20263;-46
2021/12/05 06:48:09;;;;;;;1.10;0.70;;;;;17.40;98860.00;;;;2079206;28;20300;-47
2021/12/05 06:49:09;;;;;;;2.03;0.93;;;;;17.40;98851.00;;;;2079345;28;20205;-46
2021/12/05 06:50:10;;;;;;;1.00;0.70;;;;;17.40;98853.00;;;;2079357;28;20716;-46
2021/12/05 06:51:11;;;;;;;1.67;0.80;;;;;17.40;98859.00;;;;2078595;28;20647;-45
2021/12/05 06:52:11;;;;;;;1.95;1.05;;;;;17.40;98859.00;;;;2083140;28;20225;-47
2021/12/05 06:53:12;;;;;;;1.50;1.00;;;;;17.40;98856.00;;;;2079411;28;20222;-46
2021/12/05 06:54:12;;;;;;;1.27;0.80;;;;;17.40;98857.00;;;;2078035;28;20214;-45
2021/12/05 06:55:14;;;;;;;2.17;0.93;;;;;17.40;98865.00;;;;2083789;28;20626;-45
2021/12/05 06:56:14;;;;;;;1.25;0.90;;;;;17.20;98866.00;;;;2075213;28;21215;-45
2021/12/05 06:57:15;;;;;;;3.07;1.53;;;;;17.40;98866.00;;;;2081202;28;20221;-48
2021/12/05 06:58:16;;;;;;;2.00;1.10;;;;;17.40;98870.00;;;;2086608;28;20221;-46
2021/12/05 06:59:16;;;;;;;1.40;0.90;;;;;17.40;98869.00;;;;2086181;28;20216;-45
2021/12/05 07:00:20;;;;;;;1.17;0.83;;;;;17.40;98879.00;;;;2085734;28;20479;-45
2021/12/05 07:01:21;;;;;;;2.00;1.38;;;;;17.40;98869.00;;;;2086877;28;20304;-45
2021/12/05 07:02:21;;;;;;;1.50;0.80;;;;;17.40;98875.00;;;;2086780;28;20569;-45
2021/12/05 07:03:22;;;;;;;1.33;0.93;;;;;17.40;98878.00;;;;2086998;28;20625;-46
2021/12/05 07:05:41;;;;;;;1.92;1.20;;;;;17.40;98884.00;;;;2086152;28;20757;-45
2021/12/05 07:06:42;;;;;;;1.60;0.93;;;;;17.40;98886.00;;;;2087228;28;20228;-45
2021/12/05 07:07:43;;;;;;;1.23;0.90;;;;;17.40;98887.00;;;;2084983;28;20220;-45
2021/12/05 07:08:43;;;;;;;1.23;0.60;;;;;17.40;98889.00;;;;2087206;28;20232;-45
2021/12/05 07:09:44;;;;;;;1.07;0.93;;;;;17.40;98891.00;;;;2087137;28;20508;-45
2021/12/05 07:10:54;;;;;;;1.63;1.00;;;;;17.40;98884.00;;;;2084911;28;20221;-46
2021/12/05 07:19:36;;;;;;;1.75;0.77;;;;;17.40;98897.00;;;;2087279;28;20212;-45
2021/12/05 07:21:59;;;;;;;1.00;0.70;;;;;17.40;98888.00;;;;2084808;28;20217;-45
2021/12/05 07:23:44;;;;;;;1.30;0.88;;;;;17.30;98883.00;;;;2086438;28;20749;-44
2021/12/05 07:26:04;;;;;;;1.70;0.80;;;;;17.40;98883.00;;;;2078953;28;20210;-45
2021/12/05 07:40:20;;;;;;;2.30;0.85;;;;;17.40;98878.00;;;;2082606;28;20524;-45
2021/12/05 07:40:29;;;;;;;1.83;0.90;;;;;17.30;98900.00;;;;2078887;28;20205;-46
2021/12/05 07:42:47;;;;;;;1.52;1.10;;;;;17.40;98896.00;;;;2084819;28;20216;-46
2021/12/05 07:43:49;;;;;;;1.58;0.90;;;;;17.40;98901.00;;;;2079588;28;20237;-46
2021/12/05 07:44:53;;;;;;;1.33;1.00;;;;;17.40;98903.00;;;;2078610;28;20579;-45
2021/12/05 07:45:55;;;;;;;2.47;1.05;;;;;17.40;98903.00;;;;2081106;28;21044;-46
2021/12/05 07:46:56;;;;;;;1.05;0.70;;;;;17.40;98902.00;;;;2085867;28;20213;-47
2021/12/05 07:47:57;;;;;;;1.45;0.90;;;;;17.30;98907.00;;;;2084770;28;20846;-46
2021/12/05 07:48:59;;;;;;;1.88;1.17;;;;;17.30;98898.00;;;;2087135;28;20217;-46
2021/12/05 07:50:07;;;;;;;1.35;0.70;;;;;17.40;98916.00;;;;2086301;28;20209;-46
2021/12/05 07:51:23;;;;;;;0.98;0.80;;;;;17.40;98900.00;;;;2085746;28;20287;-46
2021/12/05 07:52:27;;;;;;;1.33;1.00;;;;;17.40;98905.00;;;;2084365;28;20246;-45
2021/12/05 07:53:36;;;;;;;1.10;0.98;;;;;17.40;98909.00;;;;2084278;28;20315;-46
2021/12/05 07:54:44;;;;;;;1.13;0.80;;;;;17.40;98911.00;;;;2085656;28;20236;-47
2021/12/05 07:55:48;;;;;;;2.58;1.02;;;;;17.40;98911.00;;;;2079442;28;20653;-46
2021/12/05 07:56:58;;;;;;;2.08;1.10;;;;;17.40;98919.00;;;;2082170;28;20770;-45
2021/12/05 08:00:27;;;;;;;1.50;0.95;;;;;17.30;98911.00;;;;2086821;28;20232;-45
2021/12/05 08:14:42;;;;;;;1.60;1.15;;;;;17.40;98921.00;;;;2085269;28;20834;-45
2021/12/05 08:15:47;;;;;;;1.40;1.00;;;;;17.40;98921.00;;;;2080388;28;20308;-46
2021/12/05 08:16:50;;;;;;;1.13;0.80;;;;;17.40;98920.00;;;;2080612;28;20247;-46
2021/12/05 08:17:53;;;;;;;1.40;0.82;;;;;17.40;98919.00;;;;2080169;28;20206;-46
2021/12/05 08:18:53;;;;;;;1.40;1.10;;;;;17.40;98920.00;;;;2082695;28;20213;-46
2021/12/05 08:19:53;;;;;;;2.13;0.97;;;;;17.30;98925.00;;;;2088042;28;20233;-45
2021/12/05 08:20:54;;;;;;;1.03;0.83;;;;;17.40;98919.00;;;;2087521;28;20231;-47
2021/12/05 08:21:57;;;;;;;1.30;1.00;;;;;17.40;98924.00;;;;2087435;28;20213;-46
2021/12/05 08:22:59;;;;;;;1.20;0.93;;;;;17.40;98921.00;;;;2088073;28;20347;-45
2021/12/05 08:24:01;;;;;;;1.67;0.90;;;;;17.30;98913.00;;;;2088364;28;20575;-45
2021/12/05 08:25:09;;;;;;;1.55;0.80;;;;;17.30;98927.00;;;;2085156;28;20255;-45
2021/12/05 08:26:16;;;;;;;1.05;0.77;;;;;17.30;98921.00;;;;2088068;28;20354;-46
2021/12/05 08:27:16;;;;;;;1.40;0.90;;;;;17.30;98915.00;;;;2088060;28;20578;-45
2021/12/05 08:28:29;;;;;;;1.53;0.97;;;;;17.30;98918.00;;;;2087354;28;20213;-46
2021/12/05 08:29:38;;;;;;;1.65;1.00;;;;;17.30;98921.00;;;;2077939;28;20518;-45